createdAt,value
2018-08-04T00:00:18.659Z,9.00
2018-08-04T00:02:48.060Z,8.83
2018-08-04T00:05:17.409Z,8.78
2018-08-04T00:07:46.758Z,9.75
2018-08-04T00:10:20.307Z,9.03
2018-08-04T00:12:50.866Z,9.68
2018-08-04T00:15:20.489Z,10.25
2018-08-04T00:17:50.289Z,11.10
2018-08-04T00:20:19.676Z,10.80
2018-08-04T00:22:49.049Z,10.05
2018-08-04T00:25:18.429Z,10.13
2018-08-04T00:27:47.795Z,9.23
2018-08-04T00:30:17.173Z,9.60
2018-08-04T00:32:46.284Z,10.33
2018-08-04T00:35:15.678Z,10.53
2018-08-04T00:37:45.043Z,9.95
2018-08-04T00:40:14.406Z,10.25
2018-08-04T00:42:43.778Z,9.60
2018-08-04T00:45:12.904Z,11.95
2018-08-04T00:47:42.268Z,10.83
2018-08-04T00:50:11.794Z,10.37
2018-08-04T00:52:41.168Z,9.88
2018-08-04T00:55:10.573Z,10.83
2018-08-04T00:57:39.915Z,9.95
2018-08-04T01:00:09.300Z,9.43
2018-08-04T01:02:38.664Z,9.10
2018-08-04T01:05:08.073Z,9.43
2018-08-04T01:07:37.444Z,9.30
2018-08-04T01:10:06.818Z,9.73
2018-08-04T01:12:36.195Z,10.50
2018-08-04T01:15:05.595Z,9.93
2018-08-04T01:17:34.955Z,11.03
2018-08-04T01:20:05.567Z,10.00
2018-08-04T01:22:36.583Z,10.10
2018-08-04T01:25:07.430Z,11.93
2018-08-04T01:27:36.873Z,11.10
2018-08-04T01:30:07.055Z,10.43
2018-08-04T01:32:36.450Z,10.53
2018-08-04T01:35:05.893Z,10.90
2018-08-04T01:37:35.292Z,10.17
2018-08-04T01:40:05.705Z,9.73
2018-08-04T01:42:35.045Z,10.13
2018-08-04T01:45:04.450Z,10.27
2018-08-04T01:47:33.846Z,9.97
2018-08-04T01:50:03.262Z,10.47
2018-08-04T01:52:32.646Z,10.20
2018-08-04T01:55:02.092Z,12.60
2018-08-04T01:57:31.491Z,12.00
2018-08-04T02:00:00.891Z,11.33
2018-08-04T02:02:30.304Z,11.93
2018-08-04T02:04:59.695Z,10.97
2018-08-04T02:07:29.088Z,11.00
2018-08-04T02:09:58.218Z,12.53
2018-08-04T02:12:27.802Z,11.13
2018-08-04T02:14:57.211Z,10.83
2018-08-04T02:17:26.621Z,11.67
2018-08-04T02:19:55.996Z,10.97
2018-08-04T02:22:25.102Z,12.10
2018-08-04T02:24:54.540Z,11.33
2018-08-04T02:27:23.904Z,11.90
2018-08-04T02:29:53.280Z,10.17
2018-08-04T02:32:22.652Z,10.50
2018-08-04T02:34:52.017Z,10.67
2018-08-04T02:37:21.455Z,11.20
2018-08-04T02:39:50.815Z,10.93
2018-08-04T02:42:20.192Z,10.90
2018-08-04T02:44:49.577Z,11.20
2018-08-04T02:47:18.941Z,10.90
2018-08-04T02:49:48.307Z,11.30
2018-08-04T02:52:17.435Z,10.47
2018-08-04T02:54:46.796Z,10.37
2018-08-04T02:57:16.203Z,10.20
2018-08-04T02:59:45.582Z,12.33
2018-08-04T03:02:14.984Z,12.13
2018-08-04T03:04:44.347Z,11.13
2018-08-04T03:07:13.720Z,11.17
2018-08-04T03:09:43.083Z,10.17
2018-08-04T03:12:12.480Z,10.33
2018-08-04T03:14:41.843Z,10.27
2018-08-04T03:17:11.236Z,11.53
2018-08-04T03:19:40.629Z,10.63
2018-08-04T03:22:10.004Z,11.63
2018-08-04T03:24:39.377Z,12.77
2018-08-04T03:27:08.772Z,12.57
2018-08-04T03:29:38.136Z,13.67
2018-08-04T03:32:07.864Z,13.60
2018-08-04T03:34:37.260Z,14.27
2018-08-04T03:37:06.682Z,13.40
2018-08-04T03:39:36.031Z,20.20
2018-08-04T03:42:05.396Z,13.90
2018-08-04T03:44:34.771Z,14.70
2018-08-04T03:47:04.132Z,13.77
2018-08-04T03:49:33.489Z,11.63
2018-08-04T03:52:02.843Z,11.23
2018-08-04T03:54:31.944Z,11.17
2018-08-04T03:57:01.042Z,10.97
2018-08-04T03:59:30.230Z,11.20
2018-08-04T04:01:59.597Z,10.60
2018-08-04T04:04:28.977Z,11.20
2018-08-04T04:06:58.354Z,12.10
2018-08-04T04:09:27.716Z,12.07
2018-08-04T04:11:57.091Z,13.40
2018-08-04T04:14:26.465Z,12.50
2018-08-04T04:16:55.847Z,12.20
2018-08-04T04:19:25.009Z,12.47
2018-08-04T04:21:54.387Z,13.90
2018-08-04T04:24:23.752Z,13.13
2018-08-04T04:26:53.127Z,14.13
2018-08-04T04:29:22.508Z,13.30
2018-08-04T04:31:58.044Z,13.83
2018-08-04T04:34:27.577Z,13.97
2018-08-04T04:36:57.008Z,13.00
2018-08-04T04:39:26.324Z,14.17
2018-08-04T04:41:55.703Z,13.03
2018-08-04T04:44:24.831Z,13.03
2018-08-04T04:46:54.231Z,16.33
2018-08-04T04:49:23.592Z,14.17
2018-08-04T04:51:52.960Z,13.97
2018-08-04T04:54:22.323Z,13.90
2018-08-04T04:56:51.678Z,14.37
2018-08-04T04:59:21.035Z,14.13
2018-08-04T05:01:50.412Z,13.53
2018-08-04T05:04:19.826Z,14.23
2018-08-04T05:06:49.187Z,14.07
2018-08-04T05:09:18.548Z,13.87
2018-08-04T05:11:47.912Z,13.17
2018-08-04T05:14:17.355Z,13.77
2018-08-04T05:16:46.711Z,13.53
2018-08-04T05:19:15.828Z,13.43
2018-08-04T05:21:45.292Z,13.50
2018-08-04T05:24:14.955Z,14.63
2018-08-04T05:26:44.315Z,15.10
2018-08-04T05:29:13.972Z,14.50
2018-08-04T05:31:43.568Z,15.97
2018-08-04T05:34:12.988Z,15.60
2018-08-04T05:36:42.347Z,15.30
2018-08-04T05:39:13.028Z,16.10
2018-08-04T05:41:42.388Z,15.73
2018-08-04T05:44:11.798Z,16.63
2018-08-04T05:46:40.878Z,15.10
2018-08-04T05:49:10.004Z,15.63
2018-08-04T05:51:39.372Z,17.27
2018-08-04T05:54:08.764Z,16.10
2018-08-04T05:56:38.141Z,15.23
2018-08-04T05:59:07.519Z,16.47
2018-08-04T06:01:36.905Z,16.47
2018-08-04T06:04:06.331Z,15.70
2018-08-04T06:06:35.684Z,16.00
2018-08-04T06:09:07.352Z,15.43
2018-08-04T06:11:36.755Z,15.67
2018-08-04T06:14:06.193Z,66.47
2018-08-04T06:16:35.667Z,24.53
2018-08-04T06:19:05.063Z,18.53
2018-08-04T06:21:34.420Z,16.90
2018-08-04T06:24:03.785Z,16.47
2018-08-04T06:26:33.136Z,15.83
2018-08-04T06:29:02.510Z,17.47
2018-08-04T06:31:31.874Z,15.67
2018-08-04T06:34:01.258Z,16.73
2018-08-04T06:36:30.623Z,16.60
2018-08-04T06:38:59.991Z,16.03
2018-08-04T06:41:29.381Z,15.03
2018-08-04T06:43:58.478Z,16.50
2018-08-04T06:46:27.843Z,15.67
2018-08-04T06:48:57.219Z,15.17
2018-08-04T06:51:26.615Z,16.23
2018-08-04T06:53:55.983Z,15.90
2018-08-04T06:56:25.388Z,16.57
2018-08-04T06:58:54.765Z,16.83
2018-08-04T07:01:24.143Z,15.40
2018-08-04T07:03:53.631Z,14.77
2018-08-04T07:06:23.011Z,16.23
2018-08-04T07:08:52.388Z,14.67
2018-08-04T07:11:21.780Z,14.73
2018-08-04T07:13:51.008Z,15.07
2018-08-04T07:16:20.359Z,14.23
2018-08-04T07:18:49.754Z,13.83
2018-08-04T07:21:19.164Z,12.80
2018-08-04T07:23:48.575Z,14.67
2018-08-04T07:26:17.702Z,14.13
2018-08-04T07:28:47.151Z,13.70
2018-08-04T07:31:16.510Z,13.73
2018-08-04T07:33:45.908Z,13.25
2018-08-04T07:36:15.304Z,13.77
2018-08-04T07:38:44.684Z,14.70
2018-08-04T07:41:13.848Z,14.25
2018-08-04T07:43:43.256Z,13.80
2018-08-04T07:46:12.668Z,13.23
2018-08-04T07:48:42.068Z,14.00
2018-08-04T07:51:11.479Z,13.75
2018-08-04T07:53:40.885Z,13.30
2018-08-04T07:56:10.291Z,14.57
2018-08-04T07:58:39.426Z,15.40
2018-08-04T08:01:08.871Z,15.90
2018-08-04T08:03:38.287Z,14.83
2018-08-04T08:06:07.740Z,15.30
2018-08-04T08:08:37.123Z,15.20
2018-08-04T08:11:06.597Z,15.72
2018-08-04T08:13:35.939Z,15.03
2018-08-04T08:16:05.377Z,16.10
2018-08-04T08:18:34.873Z,14.23
2018-08-04T08:21:04.308Z,15.60
2018-08-04T08:23:33.703Z,16.10
2018-08-04T08:26:13.715Z,14.90
2018-08-04T08:28:43.613Z,15.95
2018-08-04T08:31:13.041Z,15.72
2018-08-04T08:33:42.386Z,15.30
2018-08-04T08:36:11.753Z,14.55
2018-08-04T08:38:41.116Z,15.10
2018-08-04T08:41:10.499Z,15.93
2018-08-04T08:43:39.604Z,17.23
2018-08-04T08:46:08.979Z,18.75
2018-08-04T08:48:38.379Z,16.25
2018-08-04T08:51:07.868Z,16.48
2018-08-04T08:53:37.343Z,14.68
2018-08-04T08:56:07.169Z,14.55
2018-08-04T08:58:36.556Z,15.80
2018-08-04T09:01:05.948Z,15.83
2018-08-04T09:03:35.341Z,14.38
2018-08-04T09:06:04.732Z,14.70
2018-08-04T09:08:34.109Z,14.65
2018-08-04T09:11:03.484Z,14.30
2018-08-04T09:13:32.884Z,14.95
2018-08-04T09:16:02.249Z,13.88
2018-08-04T09:18:31.635Z,13.48
2018-08-04T09:21:01.029Z,14.60
2018-08-04T09:23:30.433Z,14.23
2018-08-04T09:25:59.648Z,13.08
2018-08-04T09:28:29.045Z,13.45
2018-08-04T09:30:58.479Z,13.37
2018-08-04T09:33:27.871Z,13.90
2018-08-04T09:35:57.271Z,13.40
2018-08-04T09:38:26.692Z,13.58
2018-08-04T09:40:56.096Z,13.00
2018-08-04T09:43:25.527Z,12.43
2018-08-04T09:45:54.919Z,12.03
2018-08-04T09:48:24.342Z,12.13
2018-08-04T09:50:53.740Z,12.50
2018-08-04T09:53:23.142Z,11.38
2018-08-04T09:55:52.540Z,10.93
2018-08-04T09:58:21.943Z,11.03
2018-08-04T10:00:56.635Z,10.48
2018-08-04T10:03:26.039Z,9.55
2018-08-04T10:05:55.449Z,10.13
2018-08-04T10:08:24.827Z,9.58
2018-08-04T10:10:54.240Z,9.30
2018-08-04T10:13:23.631Z,9.50
2018-08-04T10:15:53.026Z,9.53
2018-08-04T10:18:22.436Z,9.37
2018-08-04T10:20:51.832Z,9.30
2018-08-04T10:23:21.239Z,9.15
2018-08-04T10:25:50.648Z,9.33
2018-08-04T10:28:20.112Z,9.15
2018-08-04T10:30:49.235Z,9.58
2018-08-04T10:33:18.651Z,9.95
2018-08-04T10:35:48.088Z,8.93
2018-08-04T10:38:17.456Z,9.00
2018-08-04T10:40:46.892Z,9.30
2018-08-04T10:43:16.291Z,8.83
2018-08-04T10:45:45.704Z,8.05
2018-08-04T10:48:15.123Z,8.37
2018-08-04T10:50:44.248Z,8.05
2018-08-04T10:53:13.651Z,8.40
2018-08-04T10:55:43.040Z,8.88
2018-08-04T10:58:12.445Z,9.23
2018-08-04T11:00:41.862Z,8.88
2018-08-04T11:03:11.257Z,8.48
2018-08-04T11:05:40.655Z,8.68
2018-08-04T11:08:10.070Z,8.03
2018-08-04T11:10:39.565Z,7.75
2018-08-04T11:13:09.084Z,7.97
2018-08-04T11:15:38.472Z,7.78
2018-08-04T11:18:07.891Z,8.08
2018-08-04T11:20:37.251Z,8.70
2018-08-04T11:23:06.699Z,7.78
2018-08-04T11:25:36.111Z,8.25
2018-08-04T11:28:06.066Z,8.23
2018-08-04T11:30:35.463Z,8.15
2018-08-04T11:33:04.862Z,8.23
2018-08-04T11:35:34.264Z,7.17
2018-08-04T11:38:03.661Z,7.85
2018-08-04T11:40:33.063Z,7.55
2018-08-04T11:43:02.480Z,7.17
2018-08-04T11:45:31.920Z,7.22
2018-08-04T11:48:01.284Z,6.90
2018-08-04T11:50:30.679Z,6.92
2018-08-04T11:53:00.188Z,6.37
2018-08-04T11:55:29.595Z,6.25
2018-08-04T11:57:58.988Z,5.78
2018-08-04T12:00:28.395Z,6.42
2018-08-04T12:02:57.771Z,7.30
2018-08-04T12:05:27.234Z,6.62
2018-08-04T12:07:56.577Z,6.78
2018-08-04T12:10:25.999Z,6.73
2018-08-04T12:12:55.391Z,7.05
2018-08-04T12:15:24.783Z,7.17
2018-08-04T12:17:54.186Z,6.75
2018-08-04T12:20:23.583Z,7.70
2018-08-04T12:22:52.976Z,7.05
2018-08-04T12:25:22.384Z,6.37
2018-08-04T12:27:51.760Z,6.17
2018-08-04T12:30:21.807Z,6.53
2018-08-04T12:32:51.167Z,6.58
2018-08-04T12:35:20.539Z,7.15
2018-08-04T12:37:49.924Z,6.60
2018-08-04T12:40:19.300Z,6.60
2018-08-04T12:42:48.675Z,6.50
2018-08-04T12:45:18.067Z,6.12
2018-08-04T12:47:47.428Z,6.20
2018-08-04T12:50:16.806Z,5.47
2018-08-04T12:52:46.174Z,5.72
2018-08-04T12:55:15.576Z,5.53
2018-08-04T12:57:44.928Z,5.33
2018-08-04T13:00:14.283Z,6.24
2018-08-04T13:02:43.724Z,5.67
2018-08-04T13:05:13.031Z,6.17
2018-08-04T13:07:42.404Z,5.62
2018-08-04T13:10:11.772Z,5.60
2018-08-04T13:12:40.908Z,5.12
2018-08-04T13:15:10.612Z,4.95
2018-08-04T13:17:39.990Z,5.12
2018-08-04T13:20:09.379Z,5.45
2018-08-04T13:22:38.494Z,4.83
2018-08-04T13:25:07.890Z,5.15
2018-08-04T13:27:37.254Z,4.92
2018-08-04T13:30:06.662Z,4.92
2018-08-04T13:32:36.021Z,5.05
2018-08-04T13:35:05.407Z,5.00
2018-08-04T13:37:34.818Z,4.70
2018-08-04T13:40:03.911Z,5.12
2018-08-04T13:42:33.281Z,4.67
2018-08-04T13:45:02.391Z,5.00
2018-08-04T13:47:31.768Z,4.70
2018-08-04T13:50:01.119Z,4.63
2018-08-04T13:52:30.483Z,5.47
2018-08-04T13:54:59.598Z,4.50
2018-08-04T13:57:29.010Z,5.17
2018-08-04T13:59:58.372Z,4.72
2018-08-04T14:02:27.595Z,5.05
2018-08-04T14:04:56.989Z,4.70
2018-08-04T14:07:26.371Z,4.87
2018-08-04T14:09:55.844Z,4.83
2018-08-04T14:12:25.245Z,4.80
2018-08-04T14:14:54.563Z,4.35
2018-08-04T14:17:23.997Z,4.75
2018-08-04T14:19:53.281Z,4.83
2018-08-04T14:22:22.664Z,4.30
2018-08-04T14:24:52.090Z,4.30
2018-08-04T14:27:21.285Z,4.60
2018-08-04T14:29:50.676Z,4.90
2018-08-04T14:32:20.096Z,5.03
2018-08-04T14:34:49.303Z,4.30
2018-08-04T14:37:18.641Z,4.92
2018-08-04T14:39:48.024Z,4.40
2018-08-04T14:42:17.452Z,4.80
2018-08-04T14:44:46.865Z,4.20
2018-08-04T14:47:16.259Z,4.28
2018-08-04T14:49:45.660Z,4.25
2018-08-04T14:52:15.060Z,3.30
2018-08-04T14:54:44.436Z,3.72
2018-08-04T14:57:13.839Z,3.62
2018-08-04T14:59:43.225Z,3.33
2018-08-04T15:02:12.628Z,3.20
2018-08-04T15:04:42.082Z,3.80
2018-08-04T15:07:11.430Z,3.50
2018-08-04T15:09:40.556Z,3.60
2018-08-04T15:12:09.943Z,3.42
2018-08-04T15:14:39.328Z,3.60
2018-08-04T15:17:08.475Z,3.33
2018-08-04T15:19:37.872Z,3.77
2018-08-04T15:22:07.299Z,3.80
2018-08-04T15:24:36.695Z,3.62
2018-08-04T15:27:06.124Z,3.75
2018-08-04T15:29:35.249Z,3.67
2018-08-04T15:32:04.617Z,3.90
2018-08-04T15:34:33.723Z,7.40
2018-08-04T15:37:02.847Z,4.97
2018-08-04T15:39:32.212Z,3.90
2018-08-04T15:42:01.326Z,4.45
2018-08-04T15:44:30.785Z,3.72
2018-08-04T15:47:00.205Z,3.77
2018-08-04T15:49:29.548Z,4.00
2018-08-04T15:51:58.943Z,4.42
2018-08-04T15:54:28.304Z,4.03
2018-08-04T15:56:57.683Z,4.53
2018-08-04T15:59:27.051Z,4.97
2018-08-04T16:01:56.424Z,5.25
2018-08-04T16:04:25.543Z,4.47
2018-08-04T16:06:54.917Z,4.85
2018-08-04T16:09:24.285Z,4.95
2018-08-04T16:11:53.638Z,5.60
2018-08-04T16:14:23.004Z,5.80
2018-08-04T16:16:52.381Z,5.58
2018-08-04T16:19:21.715Z,7.03
2018-08-04T16:21:51.096Z,6.20
2018-08-04T16:24:20.553Z,6.08
2018-08-04T16:26:49.924Z,5.72
2018-08-04T16:29:19.332Z,5.35
2018-08-04T16:31:48.578Z,5.22
2018-08-04T16:34:17.988Z,5.30
2018-08-04T16:36:47.387Z,5.05
2018-08-04T16:39:16.836Z,6.15
2018-08-04T16:41:46.245Z,5.70
2018-08-04T16:44:15.624Z,5.83
2018-08-04T16:46:45.015Z,5.40
2018-08-04T16:49:14.497Z,5.75
2018-08-04T16:51:43.883Z,5.95
2018-08-04T16:54:13.283Z,5.20
2018-08-04T16:56:42.685Z,5.40
2018-08-04T16:59:12.077Z,5.70
2018-08-04T17:01:41.504Z,5.30
2018-08-04T17:04:10.928Z,5.80
2018-08-04T17:06:40.360Z,7.22
2018-08-04T17:09:12.164Z,7.30
2018-08-04T17:11:41.864Z,6.35
2018-08-04T17:14:11.260Z,5.97
2018-08-04T17:16:40.635Z,5.90
2018-08-04T17:19:10.099Z,6.42
2018-08-04T17:21:39.459Z,6.40
2018-08-04T17:24:08.836Z,7.30
2018-08-04T17:26:39.236Z,7.08
2018-08-04T17:29:08.599Z,6.20
2018-08-04T17:31:37.967Z,6.28
2018-08-04T17:34:07.335Z,6.00
2018-08-04T17:36:36.683Z,5.03
2018-08-04T17:39:08.022Z,5.10
2018-08-04T17:41:37.451Z,5.72
2018-08-04T17:44:07.180Z,5.37
2018-08-04T17:46:36.528Z,5.78
2018-08-04T17:49:05.935Z,5.72
2018-08-04T17:51:35.420Z,7.28
2018-08-04T17:54:04.736Z,5.45
2018-08-04T17:56:34.917Z,5.20
2018-08-04T17:59:04.291Z,5.40
2018-08-04T18:01:33.652Z,5.95
2018-08-04T18:04:03.513Z,5.97
2018-08-04T18:06:32.783Z,5.58
2018-08-04T18:09:01.874Z,5.72
2018-08-04T18:11:30.994Z,5.75
2018-08-04T18:14:00.347Z,5.60
2018-08-04T18:16:29.704Z,5.90
2018-08-04T18:18:59.044Z,5.83
2018-08-04T18:21:28.411Z,5.85
2018-08-04T18:23:57.751Z,6.22
2018-08-04T18:26:27.109Z,5.87
2018-08-04T18:28:56.487Z,5.87
2018-08-04T18:31:25.876Z,13.83
2018-08-04T18:33:55.347Z,7.17
2018-08-04T18:36:24.712Z,6.27
2018-08-04T18:38:54.083Z,6.30
2018-08-04T18:41:23.469Z,5.80
2018-08-04T18:43:52.824Z,5.53
2018-08-04T18:46:22.251Z,5.80
2018-08-04T18:48:51.607Z,6.60
2018-08-04T18:51:20.979Z,5.92
2018-08-04T18:53:50.328Z,6.17
2018-08-04T18:56:19.691Z,6.50
2018-08-04T18:58:49.032Z,6.17
2018-08-04T19:01:18.390Z,6.47
2018-08-04T19:03:47.743Z,6.08
2018-08-04T19:06:17.095Z,5.70
2018-08-04T19:08:46.435Z,5.97
2018-08-04T19:11:15.804Z,5.67
2018-08-04T19:13:45.175Z,5.67
2018-08-04T19:16:14.543Z,6.23
2018-08-04T19:18:43.895Z,6.03
2018-08-04T19:21:13.251Z,5.80
2018-08-04T19:23:42.603Z,7.30
2018-08-04T19:26:11.947Z,6.00
2018-08-04T19:28:41.421Z,6.42
2018-08-04T19:31:10.747Z,6.87
2018-08-04T19:33:40.127Z,6.87
2018-08-04T19:36:09.566Z,6.50
2018-08-04T19:38:38.891Z,6.70
2018-08-04T19:41:08.293Z,6.42
2018-08-04T19:43:37.650Z,6.00
2018-08-04T19:46:07.671Z,6.55
2018-08-04T19:48:37.268Z,5.67
2018-08-04T19:51:06.687Z,6.60
2018-08-04T19:53:36.061Z,6.85
2018-08-04T19:56:05.182Z,6.80
2018-08-04T19:58:34.565Z,6.75
2018-08-04T20:01:03.969Z,6.45
2018-08-04T20:03:33.372Z,6.97
2018-08-04T20:06:02.760Z,6.83
2018-08-04T20:08:32.191Z,6.90
2018-08-04T20:11:01.300Z,7.70
2018-08-04T20:13:30.677Z,7.22
2018-08-04T20:16:00.067Z,7.60
2018-08-04T20:18:29.186Z,6.67
2018-08-04T20:23:56.324Z,6.75
2018-08-04T20:26:25.471Z,7.03
2018-08-04T20:28:54.841Z,6.47
2018-08-04T20:31:24.219Z,7.70
2018-08-04T20:33:53.385Z,6.85
2018-08-04T20:36:22.768Z,7.92
2018-08-04T20:38:52.157Z,7.50
2018-08-04T20:41:21.544Z,7.25
2018-08-04T20:43:50.929Z,7.08
2018-08-04T20:46:20.069Z,6.70
2018-08-04T20:48:49.423Z,6.75
2018-08-04T20:51:18.567Z,7.22
2018-08-04T20:53:47.939Z,7.10
2018-08-04T20:56:17.321Z,6.73
2018-08-04T20:58:46.444Z,7.05
2018-08-04T21:01:32.805Z,6.95
2018-08-04T21:04:02.341Z,6.42
2018-08-04T21:06:31.458Z,7.12
2018-08-04T21:09:00.832Z,6.67
2018-08-04T21:11:30.268Z,7.65
2018-08-04T21:13:59.673Z,7.45
2018-08-04T21:16:29.049Z,6.78
2018-08-04T21:18:58.474Z,7.65
2018-08-04T21:21:27.564Z,7.17
2018-08-04T21:23:56.940Z,7.03
2018-08-04T21:26:26.313Z,6.70
2018-08-04T21:28:55.708Z,6.75
2018-08-04T21:31:25.120Z,6.92
2018-08-04T21:33:54.504Z,7.12
2018-08-04T21:36:23.870Z,6.95
2018-08-04T21:38:53.488Z,6.40
2018-08-04T21:41:22.868Z,6.45
2018-08-04T21:43:52.245Z,7.45
2018-08-04T21:46:21.375Z,7.03
2018-08-04T21:48:50.747Z,7.42
2018-08-04T21:51:19.866Z,7.20
2018-08-04T21:53:49.249Z,7.75
2018-08-04T21:56:18.366Z,8.10
2018-08-04T21:58:47.739Z,7.03
2018-08-04T22:01:17.129Z,7.10
2018-08-04T22:03:46.513Z,6.78
2018-08-04T22:06:17.551Z,6.67
2018-08-04T22:09:04.171Z,6.80
2018-08-04T22:11:33.543Z,7.15
2018-08-04T22:14:02.946Z,7.08
2018-08-04T22:16:32.306Z,8.08
2018-08-04T22:19:01.696Z,6.83
2018-08-04T22:21:30.816Z,7.70
2018-08-04T22:24:00.211Z,8.10
2018-08-04T22:26:29.625Z,7.65
2018-08-04T22:28:59.004Z,6.78
2018-08-04T22:31:28.126Z,6.90
2018-08-04T22:33:57.521Z,6.72
2018-08-04T22:36:26.896Z,7.03
2018-08-04T22:38:56.030Z,7.00
2018-08-04T22:41:25.396Z,6.58
2018-08-04T22:43:54.528Z,7.35
2018-08-04T22:46:24.940Z,7.47
2018-08-04T22:48:54.967Z,7.53
2018-08-04T22:51:27.513Z,7.50
2018-08-04T22:53:57.157Z,7.90
2018-08-04T22:56:26.864Z,8.50
2018-08-04T22:58:56.237Z,8.75
2018-08-04T23:01:25.383Z,8.98
2018-08-04T23:03:54.772Z,7.65
2018-08-04T23:06:24.171Z,7.90
2018-08-04T23:08:53.546Z,6.85
2018-08-04T23:11:22.925Z,7.33
2018-08-04T23:13:52.295Z,6.97
2018-08-04T23:16:21.844Z,7.60
2018-08-04T23:18:50.966Z,8.10
2018-08-04T23:21:20.351Z,11.83
2018-08-04T23:23:49.723Z,8.50
2018-08-04T23:26:19.093Z,7.03
2018-08-04T23:28:48.488Z,7.30
2018-08-04T23:31:17.891Z,7.85
2018-08-04T23:33:47.258Z,7.20
2018-08-04T23:36:16.368Z,7.80
2018-08-04T23:38:45.752Z,9.90
2018-08-04T23:41:15.134Z,8.17
2018-08-04T23:43:44.515Z,7.40
2018-08-04T23:46:13.903Z,7.33
2018-08-04T23:48:43.271Z,8.00
2018-08-04T23:51:12.679Z,8.43
2018-08-04T23:53:42.069Z,8.03
2018-08-04T23:56:11.448Z,8.23
2018-08-04T23:58:40.873Z,7.90
